createdAt,value
2023-04-26T00:01:58.698Z,4.32
2023-04-26T00:04:25.639Z,4.38
2023-04-26T00:06:52.453Z,4.17
2023-04-26T00:09:21.801Z,4.07
2023-04-26T00:11:48.399Z,4.23
2023-04-26T00:14:15.051Z,4.28
2023-04-26T00:16:41.731Z,4.26
2023-04-26T00:19:10.579Z,4.15
2023-04-26T00:21:37.166Z,4.11
2023-04-26T00:24:05.560Z,4.12
2023-04-26T00:26:34.249Z,4.18
2023-04-26T00:29:02.040Z,4.33
2023-04-26T00:31:28.776Z,4.16
2023-04-26T00:33:55.456Z,4.16
2023-04-26T00:36:22.276Z,4.28
2023-04-26T00:38:48.937Z,4.39
2023-04-26T00:41:15.514Z,4.41
2023-04-26T00:43:42.086Z,4.38
2023-04-26T00:46:12.367Z,4.27
2023-04-26T00:48:39.178Z,4.19
2023-04-26T00:51:06.518Z,4.28
2023-04-26T00:53:35.355Z,4.20
2023-04-26T00:56:02.503Z,4.22
2023-04-26T00:58:29.880Z,4.12
2023-04-26T01:00:56.859Z,4.29
2023-04-26T01:03:23.713Z,4.28
2023-04-26T01:05:50.753Z,4.26
2023-04-26T01:08:20.770Z,4.25
2023-04-26T01:10:48.882Z,4.29
2023-04-26T01:13:17.079Z,4.29
2023-04-26T01:15:47.379Z,4.25
2023-04-26T01:18:14.888Z,4.23
2023-04-26T01:20:43.032Z,4.14
2023-04-26T01:23:10.466Z,4.13
2023-04-26T01:25:38.803Z,4.06
2023-04-26T01:28:05.486Z,4.00
2023-04-26T01:30:32.051Z,3.97
2023-04-26T01:33:01.682Z,4.05
2023-04-26T01:35:28.322Z,3.93
2023-04-26T01:37:54.928Z,3.99
2023-04-26T01:40:21.985Z,3.91
2023-04-26T01:42:48.501Z,3.52
2023-04-26T01:45:15.740Z,3.74
2023-04-26T01:48:01.149Z,3.65
2023-04-26T01:50:31.894Z,3.81
2023-04-26T01:52:58.522Z,3.72
2023-04-26T01:55:25.094Z,3.58
2023-04-26T01:57:51.677Z,3.45
2023-04-26T02:00:18.561Z,3.43
2023-04-26T02:02:48.895Z,3.55
2023-04-26T02:05:15.669Z,3.64
2023-04-26T02:07:42.257Z,3.57
2023-04-26T02:10:09.351Z,3.60
2023-04-26T02:12:36.322Z,3.59
2023-04-26T02:15:03.114Z,3.52
2023-04-26T02:17:29.766Z,3.40
2023-04-26T02:19:57.029Z,3.33
2023-04-26T02:22:25.291Z,3.41
2023-04-26T02:24:52.804Z,3.38
2023-04-26T02:27:19.868Z,3.46
2023-04-26T02:29:46.809Z,3.58
2023-04-26T02:32:14.457Z,3.41
2023-04-26T02:34:41.733Z,3.42
2023-04-26T02:37:08.978Z,3.42
2023-04-26T02:39:35.914Z,3.24
2023-04-26T02:42:02.516Z,3.30
2023-04-26T02:44:30.979Z,3.01
2023-04-26T02:46:58.024Z,3.10
2023-04-26T02:49:24.891Z,3.13
2023-04-26T02:51:51.808Z,3.03
2023-04-26T02:54:18.625Z,2.94
2023-04-26T02:56:45.609Z,2.92
2023-04-26T02:59:12.239Z,3.07
2023-04-26T03:01:38.937Z,3.10
2023-04-26T03:04:05.892Z,3.26
2023-04-26T03:06:34.431Z,3.24
2023-04-26T03:09:01.192Z,3.26
2023-04-26T03:11:27.829Z,3.35
2023-04-26T03:13:54.402Z,3.24
2023-04-26T03:16:24.049Z,3.24
2023-04-26T03:18:51.100Z,3.18
2023-04-26T03:21:17.877Z,2.95
2023-04-26T03:23:44.683Z,2.98
2023-04-26T03:26:11.281Z,3.11
2023-04-26T03:28:38.375Z,3.15
2023-04-26T03:31:05.149Z,3.19
2023-04-26T03:33:32.193Z,3.05
2023-04-26T03:35:59.062Z,3.08
2023-04-26T03:38:26.155Z,3.01
2023-04-26T03:40:52.834Z,3.04
2023-04-26T03:43:19.416Z,3.08
2023-04-26T03:45:49.369Z,2.94
2023-04-26T03:48:17.182Z,3.04
2023-04-26T03:50:45.979Z,3.13
2023-04-26T03:53:12.961Z,3.13
2023-04-26T03:55:39.721Z,3.10
2023-04-26T03:58:08.013Z,2.99
2023-04-26T04:00:38.649Z,2.93
2023-04-26T04:03:07.749Z,2.89
2023-04-26T04:05:34.733Z,2.80
2023-04-26T04:08:01.835Z,2.66
2023-04-26T04:10:29.405Z,2.78
2023-04-26T04:12:56.044Z,2.86
2023-04-26T04:15:23.323Z,2.71
2023-04-26T04:17:50.119Z,2.75
2023-04-26T04:20:16.970Z,2.78
2023-04-26T04:22:43.608Z,2.90
2023-04-26T04:25:10.930Z,2.86
2023-04-26T04:27:38.854Z,2.84
2023-04-26T04:30:07.698Z,2.89
2023-04-26T04:32:39.357Z,2.88
2023-04-26T04:35:07.295Z,2.88
2023-04-26T04:37:34.964Z,2.78
2023-04-26T04:40:02.268Z,2.84
2023-04-26T04:42:32.242Z,2.90
2023-04-26T04:44:59.701Z,2.95
2023-04-26T04:47:27.432Z,2.88
2023-04-26T04:49:54.098Z,2.93
2023-04-26T04:52:21.764Z,2.93
2023-04-26T04:54:48.683Z,2.97
2023-04-26T04:57:16.615Z,2.92
2023-04-26T04:59:44.474Z,3.07
2023-04-26T05:02:11.492Z,2.97
2023-04-26T05:04:38.362Z,3.05
2023-04-26T05:07:06.575Z,3.11
2023-04-26T05:09:34.074Z,2.96
2023-04-26T05:12:01.380Z,3.11
2023-04-26T05:14:29.713Z,3.13
2023-04-26T05:16:56.647Z,3.23
2023-04-26T05:19:23.364Z,3.47
2023-04-26T05:21:49.915Z,3.42
2023-04-26T05:24:17.017Z,3.68
2023-04-26T05:26:43.761Z,3.26
2023-04-26T05:29:32.426Z,3.32
2023-04-26T05:32:18.349Z,3.63
2023-04-26T05:35:09.073Z,3.74
2023-04-26T05:37:36.162Z,3.77
2023-04-26T05:40:04.669Z,3.74
2023-04-26T05:42:31.316Z,3.84
2023-04-26T05:44:59.008Z,3.93
2023-04-26T05:47:27.209Z,3.89
2023-04-26T05:49:54.007Z,3.75
2023-04-26T05:52:20.561Z,3.70
2023-04-26T05:54:47.968Z,3.87
2023-04-26T05:57:14.568Z,3.87
2023-04-26T05:59:41.221Z,3.96
2023-04-26T06:02:08.267Z,4.13
2023-04-26T06:04:35.464Z,4.20
2023-04-26T06:07:14.773Z,4.47
2023-04-26T06:09:41.365Z,4.68
2023-04-26T06:12:08.418Z,4.66
2023-04-26T06:14:39.485Z,4.80
2023-04-26T06:17:10.691Z,4.77
2023-04-26T06:19:37.325Z,5.06
2023-04-26T06:22:03.974Z,5.10
2023-04-26T06:24:30.694Z,4.97
2023-04-26T06:26:58.355Z,4.97
2023-04-26T06:29:25.038Z,4.94
2023-04-26T06:31:51.599Z,4.98
2023-04-26T06:34:22.271Z,5.14
2023-04-26T06:36:48.832Z,5.23
2023-04-26T06:39:17.143Z,5.20
2023-04-26T06:41:44.079Z,5.16
2023-04-26T06:44:11.746Z,5.37
2023-04-26T06:46:42.398Z,5.49
2023-04-26T06:49:12.781Z,5.53
2023-04-26T06:51:39.754Z,5.48
2023-04-26T06:54:06.429Z,5.78
2023-04-26T06:56:33.044Z,5.90
2023-04-26T06:59:01.821Z,5.83
2023-04-26T07:01:29.423Z,5.99
2023-04-26T07:03:57.610Z,5.80
2023-04-26T07:06:26.192Z,5.97
2023-04-26T07:08:53.248Z,6.11
2023-04-26T07:11:20.869Z,6.27
2023-04-26T07:13:47.727Z,6.37
2023-04-26T07:16:14.382Z,6.32
2023-04-26T07:18:41.628Z,6.33
2023-04-26T07:21:08.566Z,6.62
2023-04-26T07:23:35.480Z,6.48
2023-04-26T07:26:04.198Z,6.61
2023-04-26T07:28:31.802Z,6.55
2023-04-26T07:31:00.192Z,6.52
2023-04-26T07:33:27.352Z,6.64
2023-04-26T07:35:59.376Z,6.49
2023-04-26T07:38:26.004Z,6.83
2023-04-26T07:40:52.763Z,7.02
2023-04-26T07:43:20.774Z,6.93
2023-04-26T07:45:47.400Z,7.23
2023-04-26T07:48:14.172Z,7.23
2023-04-26T07:50:40.742Z,7.20
2023-04-26T07:53:07.302Z,7.36
2023-04-26T07:55:33.865Z,7.25
2023-04-26T07:58:00.831Z,7.35
2023-04-26T08:00:27.732Z,7.25
2023-04-26T08:02:54.497Z,7.21
2023-04-26T08:05:22.157Z,7.46
2023-04-26T08:07:48.786Z,7.59
2023-04-26T08:10:15.818Z,7.71
2023-04-26T08:12:42.419Z,7.76
2023-04-26T08:15:11.015Z,8.00
2023-04-26T08:17:37.727Z,8.05
2023-04-26T08:20:09.832Z,7.85
2023-04-26T08:22:39.004Z,7.94
2023-04-26T08:25:06.448Z,8.20
2023-04-26T08:27:34.409Z,8.08
2023-04-26T08:30:01.071Z,7.81
2023-04-26T08:32:27.669Z,7.89
2023-04-26T08:34:54.304Z,7.81
2023-04-26T08:37:20.907Z,7.96
2023-04-26T08:39:47.429Z,8.25
2023-04-26T08:42:16.170Z,8.27
2023-04-26T08:44:44.391Z,7.74
2023-04-26T08:47:28.715Z,7.86
2023-04-26T08:49:59.768Z,7.54
2023-04-26T08:52:31.538Z,7.78
2023-04-26T08:54:59.686Z,7.62
2023-04-26T08:57:27.039Z,7.46
2023-04-26T08:59:53.851Z,7.41
2023-04-26T09:02:22.274Z,7.51
2023-04-26T09:04:50.719Z,7.30
2023-04-26T09:07:41.609Z,7.61
2023-04-26T09:10:09.778Z,7.40
2023-04-26T09:12:37.191Z,7.66
2023-04-26T09:15:07.292Z,7.47
2023-04-26T09:17:39.056Z,7.84
2023-04-26T09:20:24.208Z,8.10
2023-04-26T09:22:53.187Z,8.07
2023-04-26T09:25:29.311Z,8.32
2023-04-26T09:27:56.377Z,8.36
2023-04-26T09:30:23.583Z,8.68
2023-04-26T09:33:06.909Z,8.61
2023-04-26T09:35:41.935Z,8.61
2023-04-26T09:38:17.649Z,8.89
2023-04-26T09:40:49.378Z,8.89
2023-04-26T09:43:22.587Z,8.77
2023-04-26T09:45:54.054Z,8.78
2023-04-26T09:48:30.378Z,8.74
2023-04-26T09:50:59.355Z,8.55
2023-04-26T09:53:28.855Z,8.40
2023-04-26T09:55:56.721Z,8.45
2023-04-26T09:58:23.582Z,8.48
2023-04-26T10:00:54.599Z,8.54
2023-04-26T10:03:23.167Z,8.28
2023-04-26T10:05:50.190Z,8.51
2023-04-26T10:08:16.753Z,8.55
2023-04-26T10:10:43.901Z,9.13
2023-04-26T10:13:11.611Z,8.99
2023-04-26T10:15:39.817Z,9.05
2023-04-26T10:18:06.994Z,9.26
2023-04-26T10:20:35.326Z,9.09
2023-04-26T10:23:05.103Z,8.98
2023-04-26T10:25:36.534Z,9.61
2023-04-26T10:28:03.622Z,9.92
2023-04-26T10:30:30.446Z,9.83
2023-04-26T10:32:56.980Z,9.38
2023-04-26T10:35:26.071Z,9.20
2023-04-26T10:38:01.829Z,9.54
2023-04-26T10:40:32.467Z,9.69
2023-04-26T10:43:19.752Z,10.15
2023-04-26T10:45:47.589Z,10.14
2023-04-26T10:48:14.085Z,10.14
2023-04-26T10:50:59.469Z,10.55
2023-04-26T10:53:26.234Z,10.34
2023-04-26T10:55:53.262Z,10.45
2023-04-26T10:58:29.429Z,10.22
2023-04-26T11:01:20.964Z,10.53
2023-04-26T11:04:11.565Z,10.13
2023-04-26T11:06:59.974Z,10.19
2023-04-26T11:09:39.745Z,9.84
2023-04-26T11:12:16.401Z,9.65
2023-04-26T11:14:45.507Z,9.31
2023-04-26T11:17:13.080Z,9.43
2023-04-26T11:19:41.894Z,9.56
2023-04-26T11:22:08.758Z,9.49
2023-04-26T11:24:42.645Z,9.43
2023-04-26T11:27:13.033Z,9.37
2023-04-26T11:29:39.608Z,9.37
2023-04-26T11:32:07.039Z,9.35
2023-04-26T11:34:34.352Z,9.08
2023-04-26T11:37:06.346Z,9.19
2023-04-26T11:39:33.502Z,8.75
2023-04-26T11:42:11.454Z,9.01
2023-04-26T11:44:39.838Z,9.08
2023-04-26T11:47:07.796Z,9.23
2023-04-26T11:49:36.611Z,9.21
2023-04-26T11:52:04.925Z,9.39
2023-04-26T11:54:37.507Z,9.86
2023-04-26T11:57:18.158Z,9.87
2023-04-26T11:59:45.781Z,10.00
2023-04-26T12:02:12.538Z,9.80
2023-04-26T12:04:41.183Z,9.65
2023-04-26T12:07:08.432Z,9.56
2023-04-26T12:09:36.580Z,9.20
2023-04-26T12:12:07.658Z,9.41
2023-04-26T12:14:36.123Z,9.38
2023-04-26T12:17:05.976Z,9.16
2023-04-26T12:19:40.505Z,9.29
2023-04-26T12:22:08.649Z,8.67
2023-04-26T12:24:38.454Z,8.68
2023-04-26T12:27:06.995Z,8.93
2023-04-26T12:29:34.655Z,9.06
2023-04-26T12:32:02.297Z,9.06
2023-04-26T12:34:28.955Z,8.60
2023-04-26T12:36:55.667Z,8.77
2023-04-26T12:39:22.273Z,8.55
2023-04-26T12:41:49.263Z,8.75
2023-04-26T12:44:15.914Z,8.84
2023-04-26T12:46:42.729Z,9.03
2023-04-26T12:49:09.443Z,9.07
2023-04-26T12:51:36.055Z,9.05
2023-04-26T12:54:02.942Z,9.10
2023-04-26T12:56:29.916Z,9.16
2023-04-26T12:58:56.829Z,9.17
2023-04-26T13:01:23.417Z,9.39
2023-04-26T13:03:50.241Z,9.48
2023-04-26T13:06:17.255Z,9.43
2023-04-26T13:08:43.777Z,9.44
2023-04-26T13:11:10.427Z,9.44
2023-04-26T13:13:43.598Z,9.27
2023-04-26T13:16:11.872Z,9.36
2023-04-26T13:18:39.117Z,9.64
2023-04-26T13:21:05.963Z,9.71
2023-04-26T13:23:32.571Z,9.68
2023-04-26T13:25:59.177Z,9.56
2023-04-26T13:28:25.917Z,9.64
2023-04-26T13:30:52.811Z,9.54
2023-04-26T13:33:21.036Z,9.48
2023-04-26T13:35:47.920Z,9.54
2023-04-26T13:38:14.612Z,9.38
2023-04-26T13:40:41.499Z,9.43
2023-04-26T13:43:08.060Z,9.68
2023-04-26T13:45:36.618Z,9.85
2023-04-26T13:48:03.332Z,10.22
2023-04-26T13:50:29.939Z,9.73
2023-04-26T13:52:56.690Z,10.32
2023-04-26T13:55:23.707Z,10.53
2023-04-26T13:57:50.356Z,10.70
2023-04-26T14:00:17.381Z,10.84
2023-04-26T14:02:46.218Z,10.89
2023-04-26T14:05:13.251Z,10.90
2023-04-26T14:07:41.374Z,10.95
2023-04-26T14:10:08.827Z,10.79
2023-04-26T14:12:35.493Z,10.25
2023-04-26T14:15:04.300Z,10.46
2023-04-26T14:17:32.396Z,10.23
2023-04-26T14:19:59.076Z,10.24
2023-04-26T14:22:27.056Z,10.31
2023-04-26T14:24:53.653Z,10.77
2023-04-26T14:27:20.326Z,10.46
2023-04-26T14:29:46.884Z,10.25
2023-04-26T14:32:13.708Z,10.38
2023-04-26T14:34:40.444Z,10.24
2023-04-26T14:37:07.696Z,10.45
2023-04-26T14:39:34.345Z,10.84
2023-04-26T14:42:01.694Z,10.66
2023-04-26T14:44:28.274Z,10.70
2023-04-26T14:46:54.852Z,10.81
2023-04-26T14:49:21.478Z,10.87
2023-04-26T14:51:48.043Z,10.51
2023-04-26T14:54:15.591Z,10.59
2023-04-26T14:56:42.224Z,10.55
2023-04-26T14:59:08.818Z,10.65
2023-04-26T15:01:35.506Z,10.93
2023-04-26T15:04:02.254Z,11.01
2023-04-26T15:06:30.742Z,11.01
2023-04-26T15:08:57.439Z,10.83
2023-04-26T15:11:24.087Z,10.69
2023-04-26T15:13:50.709Z,10.80
2023-04-26T15:16:17.504Z,10.72
2023-04-26T15:18:44.227Z,10.47
2023-04-26T15:21:19.324Z,10.96
2023-04-26T15:23:46.476Z,11.43
2023-04-26T15:26:13.645Z,11.50
2023-04-26T15:28:40.646Z,11.80
2023-04-26T15:31:11.125Z,12.29
2023-04-26T15:33:37.839Z,12.19
2023-04-26T15:36:05.293Z,12.37
2023-04-26T15:38:34.153Z,12.69
2023-04-26T15:41:01.033Z,12.73
2023-04-26T15:43:27.794Z,12.69
2023-04-26T15:45:54.715Z,12.87
2023-04-26T15:48:21.919Z,13.00
2023-04-26T15:50:48.423Z,12.83
2023-04-26T15:53:14.993Z,12.35
2023-04-26T15:55:41.601Z,12.43
2023-04-26T15:58:08.170Z,12.46
2023-04-26T16:00:36.297Z,11.99
2023-04-26T16:03:03.073Z,11.37
2023-04-26T16:05:31.468Z,11.57
2023-04-26T16:07:59.488Z,11.33
2023-04-26T16:10:26.470Z,11.66
2023-04-26T16:12:53.011Z,11.62
2023-04-26T16:15:19.817Z,11.24
2023-04-26T16:17:46.535Z,11.32
2023-04-26T16:20:13.156Z,11.06
2023-04-26T16:22:39.801Z,10.70
2023-04-26T16:25:06.887Z,10.74
2023-04-26T16:27:33.697Z,10.96
2023-04-26T16:30:00.360Z,11.09
2023-04-26T16:32:27.201Z,11.03
2023-04-26T16:34:53.805Z,10.80
2023-04-26T16:37:20.820Z,10.69
2023-04-26T16:39:47.384Z,10.96
2023-04-26T16:42:13.936Z,11.19
2023-04-26T16:44:40.733Z,10.96
2023-04-26T16:47:07.316Z,11.01
2023-04-26T16:49:34.175Z,11.11
2023-04-26T16:52:01.310Z,10.84
2023-04-26T16:54:28.265Z,10.88
2023-04-26T16:56:54.920Z,10.93
2023-04-26T16:59:21.643Z,10.74
2023-04-26T17:01:48.304Z,10.27
2023-04-26T17:04:15.068Z,10.36
2023-04-26T17:06:41.730Z,10.28
2023-04-26T17:09:08.792Z,9.96
2023-04-26T17:11:37.289Z,10.14
2023-04-26T17:14:04.409Z,10.12
2023-04-26T17:16:31.181Z,10.15
2023-04-26T17:18:58.359Z,10.34
2023-04-26T17:21:25.282Z,9.92
2023-04-26T17:23:52.203Z,9.82
2023-04-26T17:26:18.769Z,9.96
2023-04-26T17:28:45.381Z,9.82
2023-04-26T17:31:12.023Z,10.01
2023-04-26T17:33:38.607Z,9.74
2023-04-26T17:36:05.560Z,9.57
2023-04-26T17:38:32.125Z,9.84
2023-04-26T17:40:59.585Z,9.67
2023-04-26T17:43:26.142Z,9.68
2023-04-26T17:45:52.948Z,9.82
2023-04-26T17:48:19.637Z,9.82
2023-04-26T17:50:46.362Z,9.91
2023-04-26T17:53:13.054Z,9.65
2023-04-26T17:55:40.023Z,9.95
2023-04-26T17:58:06.563Z,9.27
2023-04-26T18:00:33.157Z,9.30
2023-04-26T18:03:02.811Z,9.21
2023-04-26T18:05:29.612Z,9.31
2023-04-26T18:07:56.506Z,9.22
2023-04-26T18:10:23.206Z,9.31
2023-04-26T18:12:49.886Z,9.58
2023-04-26T18:15:16.881Z,9.18
2023-04-26T18:17:43.693Z,9.25
2023-04-26T18:20:13.000Z,9.40
2023-04-26T18:22:40.129Z,9.06
2023-04-26T18:25:07.260Z,9.31
2023-04-26T18:27:33.934Z,9.20
2023-04-26T18:30:00.684Z,9.18
2023-04-26T18:32:27.385Z,8.93
2023-04-26T18:34:53.950Z,9.08
2023-04-26T18:37:20.484Z,9.04
2023-04-26T18:39:47.071Z,9.10
2023-04-26T18:42:13.621Z,8.98
2023-04-26T18:44:40.216Z,9.08
2023-04-26T18:47:06.814Z,8.82
2023-04-26T18:49:33.490Z,8.92
2023-04-26T18:52:00.704Z,8.83
2023-04-26T18:54:27.777Z,8.96
2023-04-26T18:56:54.345Z,9.00
2023-04-26T18:59:20.837Z,9.07
2023-04-26T19:01:49.073Z,9.13
2023-04-26T19:04:15.987Z,9.20
2023-04-26T19:06:42.793Z,9.26
2023-04-26T19:09:11.719Z,9.24
2023-04-26T19:11:38.433Z,9.24
2023-04-26T19:14:05.152Z,9.21
2023-04-26T19:16:31.996Z,9.13
2023-04-26T19:18:58.717Z,9.15
2023-04-26T19:21:25.429Z,9.13
2023-04-26T19:23:52.070Z,9.18
2023-04-26T19:26:18.589Z,9.01
2023-04-26T19:28:45.230Z,9.12
2023-04-26T19:31:11.745Z,9.09
2023-04-26T19:33:38.291Z,9.06
2023-04-26T19:36:04.989Z,9.01
2023-04-26T19:38:31.807Z,9.03
2023-04-26T19:40:58.317Z,8.98
2023-04-26T19:43:24.859Z,8.98
2023-04-26T19:45:51.388Z,8.85
2023-04-26T19:48:17.906Z,8.84
2023-04-26T19:50:46.164Z,8.86
2023-04-26T19:53:14.449Z,8.81
2023-04-26T19:55:42.221Z,8.89
2023-04-26T19:58:10.321Z,8.86
2023-04-26T20:00:37.825Z,8.89
2023-04-26T20:03:05.306Z,8.76
2023-04-26T20:05:32.215Z,8.77
2023-04-26T20:07:58.884Z,8.74
2023-04-26T20:10:25.574Z,8.64
2023-04-26T20:12:53.114Z,8.63
2023-04-26T20:15:19.758Z,8.51
2023-04-26T20:17:46.403Z,8.56
2023-04-26T20:20:13.125Z,8.60
2023-04-26T20:22:40.676Z,8.56
2023-04-26T20:25:07.823Z,8.56
2023-04-26T20:27:34.883Z,8.60
2023-04-26T20:30:01.777Z,8.57
2023-04-26T20:32:28.517Z,8.43
2023-04-26T20:34:55.149Z,8.48
2023-04-26T20:37:22.052Z,8.51
2023-04-26T20:39:49.030Z,8.46
2023-04-26T20:42:16.051Z,8.37
2023-04-26T20:44:43.034Z,8.38
2023-04-26T20:47:09.703Z,8.40
2023-04-26T20:49:36.307Z,8.43
2023-04-26T20:52:03.010Z,8.38
2023-04-26T20:54:29.554Z,8.31
2023-04-26T20:56:56.128Z,8.29
2023-04-26T20:59:25.042Z,8.23
2023-04-26T21:01:53.138Z,8.17
2023-04-26T21:04:20.014Z,8.08
2023-04-26T21:06:46.710Z,8.06
2023-04-26T21:09:13.485Z,7.94
2023-04-26T21:11:40.144Z,7.83
2023-04-26T21:14:07.157Z,7.78
2023-04-26T21:16:33.857Z,7.75
2023-04-26T21:19:00.444Z,7.82
2023-04-26T21:21:28.609Z,7.76
2023-04-26T21:23:55.193Z,7.65
2023-04-26T21:26:21.855Z,7.58
2023-04-26T21:28:48.594Z,7.54
2023-04-26T21:31:15.490Z,7.59
2023-04-26T21:33:42.121Z,7.63
2023-04-26T21:36:09.009Z,7.58
2023-04-26T21:38:35.637Z,7.47
2023-04-26T21:41:02.207Z,7.43
2023-04-26T21:43:28.841Z,7.31
2023-04-26T21:45:56.396Z,7.26
2023-04-26T21:48:22.977Z,7.23
2023-04-26T21:50:49.934Z,7.18
2023-04-26T21:53:17.326Z,7.15
2023-04-26T21:55:43.850Z,7.21
2023-04-26T21:58:10.345Z,7.21
2023-04-26T22:00:37.320Z,7.26
2023-04-26T22:03:04.111Z,7.16
2023-04-26T22:05:30.988Z,7.08
2023-04-26T22:07:57.544Z,7.00
2023-04-26T22:10:24.131Z,6.93
2023-04-26T22:12:50.749Z,6.84
2023-04-26T22:15:17.326Z,6.77
2023-04-26T22:17:44.045Z,6.77
2023-04-26T22:20:12.003Z,6.70
2023-04-26T22:22:38.622Z,6.68
2023-04-26T22:25:05.907Z,6.73
2023-04-26T22:27:32.556Z,6.67
2023-04-26T22:30:06.242Z,6.65
2023-04-26T22:32:39.248Z,6.63
2023-04-26T22:35:06.279Z,6.70
2023-04-26T22:37:32.839Z,6.75
2023-04-26T22:39:59.398Z,6.75
2023-04-26T22:42:25.941Z,6.77
2023-04-26T22:44:52.755Z,6.73
2023-04-26T22:47:22.779Z,6.65
2023-04-26T22:49:49.704Z,6.60
2023-04-26T22:54:43.766Z,6.57
2023-04-26T22:57:10.320Z,6.52
2023-04-26T22:59:36.915Z,6.55
2023-04-26T23:02:03.482Z,6.49
2023-04-26T23:04:30.152Z,6.45
2023-04-26T23:06:56.811Z,6.40
2023-04-26T23:09:23.441Z,6.41
2023-04-26T23:11:50.057Z,6.36
2023-04-26T23:14:17.090Z,6.32
2023-04-26T23:16:43.695Z,6.27
2023-04-26T23:19:11.254Z,6.28
2023-04-26T23:21:37.963Z,6.20
2023-04-26T23:24:04.850Z,6.24
2023-04-26T23:26:32.050Z,6.22
2023-04-26T23:28:58.558Z,6.27
2023-04-26T23:31:25.356Z,6.27
2023-04-26T23:33:51.919Z,6.14
2023-04-26T23:36:18.467Z,6.08
2023-04-26T23:38:45.006Z,6.06
2023-04-26T23:41:11.567Z,5.98
2023-04-26T23:43:38.171Z,5.94
2023-04-26T23:46:04.734Z,5.91
2023-04-26T23:48:31.277Z,5.96
2023-04-26T23:50:57.820Z,5.95
2023-04-26T23:53:24.398Z,5.90
2023-04-26T23:55:51.193Z,5.88
2023-04-26T23:58:17.734Z,5.87
